Airfield :
LOGIN :

Register | Disclaimer

   EN    FR    IT 

 










Legend :    VFR   Marginal VFR   IFR   Intensive IFR   Very Intensive IFR
Visi :
Ceiling :
>= 8 km
>= 3000ft
5 to 8 km
1000 to 3000 ft
1500m to 5 km
500 to 1000 ft
800 to 1500m
200 to 500 ft
< 800m
< 200 ft
Symbols :   Thunderstorms  Fog  Heavy snow  Heavy precipitations  Wind > 20 kt
SIGMETs :     Misc.  Thunderstorms  Icing  Turbulence  Mountain Waves  Volcanic Ashes






- Airport Elevation : 1989 ft
- IATA code : KLV


LKKV - Karlovy Vary

CURRENT METAR :
  • 291030Z 12004KT 9999 BKN008 OVC012 04/02 Q1016

EXPIRED METARs :
  • 291000Z 14004KT 120V180 9999 BKN009 OVC013 03/02 Q1017
  • 290930Z 13004KT 9999 OVC012 03/02 Q1017
  • 290900Z 12003KT 9999 OVC013 03/02 Q1017
  • 290830Z 09003KT 9999 OVC014 03/01 Q1017
  • 290800Z VRB02KT 9999 OVC016 03/01 Q1017
  • 290730Z VRB01KT 9999 OVC017 02/01 Q1018
  • 290700Z VRB01KT 9999 OVC017 01/01 Q1018
  • 290630Z VRB01KT 9999 OVC018 00/M00 Q1018
  • 290600Z 00000KT 9999 OVC018 00/00 Q1018

TAF TAF LKKV
Valid from the 29 at 06:00 until the 01 at 06:00 UTC


290500Z 2906/0106 14004KT 8000 BKN016
TEMPO 2906/2912 2000 BR BKN008
BECMG 2921/2923 5000 BR BKN005
TEMPO 2923/0106 1500 MIFG BR BKN002



MET'MAP, your aeronautical weather chart ! - Copyright ORBIFLY December 2007 - Disclaimer

ORBIFLY MET'MAP TEAM :

Programming & Development : Alexandra Zaïnal
Original concept : Baudouin d'Aumeries
Technical & hardware support : Manuel Goepfert
Assistance : Marc-Olivier Méhu




SOURCES & CREDITS :

   NOAA